Time;durP1;ratioP1;P1;durP2;ratioP2;P2;SDS_P1;SDS_P2;PMS_P1;PMS_P2;Temp;Humidity;BMP_temperature;BMP_pressure;BME280_temperature;BME280_humidity;BME280_pressure;Samples;Min_cycle;Max_cycle;Signal;HPM_P1;HPM_P2
2022/03/15 00:01:52;;;;;;;;;;;;;;;5.89;100.00;99801.84;5098870;28;19923;-75
2022/03/15 00:04:19;;;;;;;;;;;;;;;5.91;100.00;99804.25;5114240;28;20271;-75
2022/03/15 00:06:46;;;;;;;;;;;;;;;5.86;100.00;99793.47;5114129;28;20394;-75
2022/03/15 00:09:16;;;;;;;;;;;;;;;5.86;100.00;99790.69;5096734;28;19924;-75
2022/03/15 00:11:44;;;;;;;;;;;;;;;6.02;100.00;99794.06;5096183;28;20379;-75
2022/03/15 00:14:14;;;;;;;;;;;;;;;5.96;100.00;99788.06;5079388;28;19924;-76
2022/03/15 00:16:42;;;;;;;;;;;;;;;6.07;100.00;99791.78;5079831;28;19924;-76
2022/03/15 00:19:11;;;;;;;;;;;;;;;5.97;100.00;99791.63;5096489;28;20432;-75
2022/03/15 00:21:39;;;;;;;;;;;;;;;5.85;100.00;99791.84;5095955;28;20045;-76
2022/03/15 00:24:07;;;;;;;;;;;;;;;5.62;100.00;99783.56;5096179;28;19924;-75
2022/03/15 00:26:35;;;;;;;;;;;;;;;5.68;100.00;99781.28;5095821;28;20018;-75
2022/03/15 00:29:10;;;;;;;;;;;;;;;5.17;100.00;99778.91;5097123;28;19923;-75
2022/03/15 00:31:39;;;;;;;;;;;;;;;4.72;100.00;99778.09;5095454;28;20410;-75
2022/03/15 00:34:11;;;;;;;;;;;;;;;5.11;100.00;99771.25;5096181;28;19923;-75
2022/03/15 00:36:40;;;;;;;;;;;;;;;5.12;100.00;99773.66;5096017;28;19931;-75
2022/03/15 00:39:08;;;;;;;;;;;;;;;5.13;100.00;99775.28;5078896;28;20410;-75
2022/03/15 00:41:35;;;;;;;;;;;;;;;5.22;100.00;99780.56;5095603;28;20356;-75
2022/03/15 00:44:02;;;;;;;;;;;;;;;5.03;100.00;99778.66;5095825;28;19973;-75
2022/03/15 00:46:34;;;;;;;;;;;;;;;5.12;100.00;99775.63;5080636;28;19969;-76
2022/03/15 00:49:02;;;;;;;;;;;;;;;5.22;100.00;99784.13;5113944;28;20371;-76
2022/03/15 00:51:33;;;;;;;;;;;;;;;4.22;100.00;99792.94;5091706;28;20405;-76
2022/03/15 00:54:01;;;;;;;;;;;;;;;4.02;100.00;99785.78;5062928;28;19924;-75
2022/03/15 00:56:28;;;;;;;;;;;;;;;4.35;100.00;99790.78;5095868;28;19973;-75
2022/03/15 00:58:57;;;;;;;;;;;;;;;4.41;100.00;99792.13;5113907;28;19923;-76
2022/03/15 01:01:41;;;;;;;;;;;;;;;4.59;100.00;99791.28;5097809;28;19931;-76
2022/03/15 01:04:13;;;;;;;;;;;;;;;4.68;100.00;99789.06;5098454;28;20340;-76
2022/03/15 01:06:45;;;;;;;;;;;;;;;4.54;100.00;99783.31;5116394;28;19925;-76
2022/03/15 01:09:35;;;;;;;;;;;;;;;4.35;100.00;99780.53;5102553;28;19973;-75
2022/03/15 01:12:23;;;;;;;;;;;;;;;4.49;100.00;99786.34;5102468;28;20060;-75
2022/03/15 01:14:51;;;;;;;;;;;;;;;4.51;100.00;99786.78;5099544;28;20480;-75
2022/03/15 01:17:24;;;;;;;;;;;;;;;4.03;100.00;99795.66;5068276;28;19923;-75
2022/03/15 01:19:51;;;;;;;;;;;;;;;4.30;100.00;99789.13;5099386;28;19931;-75
2022/03/15 01:22:19;;;;;;;;;;;;;;;4.32;100.00;99785.97;5117345;28;20057;-76
2022/03/15 01:24:48;;;;;;;;;;;;;;;4.39;100.00;99784.16;5099264;28;19974;-75
2022/03/15 01:27:16;;;;;;;;;;;;;;;3.84;100.00;99781.81;5099280;28;20275;-75
2022/03/15 01:29:43;;;;;;;;;;;;;;;3.88;100.00;99777.16;5082306;28;19930;-76
2022/03/15 01:32:10;;;;;;;;;;;;;;;3.89;100.00;99777.97;5082330;28;19947;-75
2022/03/15 01:34:37;;;;;;;;;;;;;;;4.15;100.00;99787.22;5082289;28;19923;-75
2022/03/15 01:37:05;;;;;;;;;;;;;;;3.85;100.00;99788.94;5098792;28;19924;-76
2022/03/15 01:39:37;;;;;;;;;;;;;;;3.71;100.00;99772.84;5097809;28;20006;-76
2022/03/15 01:42:04;;;;;;;;;;;;;;;3.77;100.00;99780.88;5099218;28;19924;-75
2022/03/15 01:44:53;;;;;;;;;;;;;;;3.02;100.00;99783.84;5114869;28;19924;-75
2022/03/15 01:47:39;;;;;;;;;;;;;;;3.39;100.00;99779.59;5101980;28;19972;-75
2022/03/15 01:50:08;;;;;;;;;;;;;;;3.70;100.00;99781.50;5097814;28;20288;-76
2022/03/15 01:52:38;;;;;;;;;;;;;;;3.72;100.00;99779.19;5098699;28;20317;-76
2022/03/15 01:55:21;;;;;;;;;;;;;;;3.84;100.00;99784.59;5086347;28;20318;-76
2022/03/15 01:57:50;;;;;;;;;;;;;;;3.86;100.00;99773.97;5076391;28;19931;-76
2022/03/15 02:00:19;;;;;;;;;;;;;;;3.86;100.00;99781.47;5095334;28;19924;-76
2022/03/15 02:02:54;;;;;;;;;;;;;;;3.84;100.00;99781.81;5082797;28;20383;-75
2022/03/15 02:05:42;;;;;;;;;;;;;;;3.44;100.00;99779.34;5115976;28;19928;-76
2022/03/15 02:08:10;;;;;;;;;;;;;;;3.16;100.00;99777.84;5080856;28;19924;-75
2022/03/15 02:10:57;;;;;;;;;;;;;;;3.31;100.00;99775.09;5116549;28;19934;-76
2022/03/15 02:13:40;;;;;;;;;;;;;;;2.94;100.00;99770.22;5100999;28;20011;-76
2022/03/15 02:16:28;;;;;;;;;;;;;;;3.32;100.00;99764.81;5087594;28;19931;-76
2022/03/15 02:19:14;;;;;;;;;;;;;;;3.35;100.00;99770.44;5116580;28;19931;-76
2022/03/15 02:21:43;;;;;;;;;;;;;;;3.49;100.00;99764.44;5098642;28;19932;-76
2022/03/15 02:24:31;;;;;;;;;;;;;;;3.45;100.00;99763.56;5115826;28;20287;-76
2022/03/15 02:27:24;;;;;;;;;;;;;;;3.36;100.00;99755.47;5111991;28;20011;-76
2022/03/15 02:29:51;;;;;;;;;;;;;;;3.28;100.00;99758.44;5098212;28;20349;-76
2022/03/15 02:32:18;;;;;;;;;;;;;;;3.26;100.00;99752.44;5098391;28;19923;-75
2022/03/15 02:34:49;;;;;;;;;;;;;;;3.17;100.00;99746.31;5115317;28;19931;-76
2022/03/15 02:37:24;;;;;;;;;;;;;;;3.31;100.00;99752.19;5099274;28;19943;-76
2022/03/15 02:40:10;;;;;;;;;;;;;;;3.31;100.00;99741.94;5100601;28;19931;-75
2022/03/15 02:42:41;;;;;;;;;;;;;;;3.29;100.00;99743.44;5116377;28;19931;-76
2022/03/15 02:45:29;;;;;;;;;;;;;;;3.26;100.00;99749.69;5093965;28;19941;-76
2022/03/15 02:47:56;;;;;;;;;;;;;;;3.20;100.00;99746.41;5078992;28;19931;-76
2022/03/15 02:50:24;;;;;;;;;;;;;;;3.18;100.00;99739.66;5080630;28;20390;-76
2022/03/15 02:53:11;;;;;;;;;;;;;;;2.95;100.00;99744.22;5099265;28;20266;-76
2022/03/15 02:55:40;;;;;;;;;;;;;;;2.85;100.00;99744.72;5115886;28;20374;-76
2022/03/15 02:58:08;;;;;;;;;;;;;;;2.90;100.00;99738.94;5115802;28;20004;-76
2022/03/15 03:00:36;;;;;;;;;;;;;;;2.48;100.00;99740.63;5081008;28;20395;-76
2022/03/15 03:03:03;;;;;;;;;;;;;;;2.83;100.00;99734.03;5114519;28;19985;-76
2022/03/15 03:05:36;;;;;;;;;;;;;;;2.73;100.00;99731.00;5080909;28;19927;-76
2022/03/15 03:08:04;;;;;;;;;;;;;;;2.78;100.00;99719.72;5097317;28;19931;-76
2022/03/15 03:10:38;;;;;;;;;;;;;;;2.72;100.00;99723.91;5096303;28;19924;-76
2022/03/15 03:13:05;;;;;;;;;;;;;;;2.83;100.00;99717.47;5097494;28;19931;-76
2022/03/15 03:15:56;;;;;;;;;;;;;;;2.82;100.00;99707.59;5106192;28;19923;-76
2022/03/15 03:18:31;;;;;;;;;;;;;;;2.87;100.00;99721.16;5097264;28;20355;-76
2022/03/15 03:21:06;;;;;;;;;;;;;;;2.84;100.00;99710.00;5111956;28;19935;-76
2022/03/15 03:23:35;;;;;;;;;;;;;;;2.84;100.00;99708.06;5115137;28;19969;-76
2022/03/15 03:26:03;;;;;;;;;;;;;;;2.83;100.00;99709.19;5114540;28;20051;-76
2022/03/15 03:28:36;;;;;;;;;;;;;;;2.77;100.00;99707.88;5097141;28;20279;-76
2022/03/15 03:31:10;;;;;;;;;;;;;;;2.64;100.00;99711.88;5115076;28;19924;-76
2022/03/15 03:33:38;;;;;;;;;;;;;;;2.35;100.00;99706.00;5114996;28;19946;-76
2022/03/15 03:36:09;;;;;;;;;;;;;;;2.30;100.00;99718.09;5115069;28;19934;-76
2022/03/15 03:38:57;;;;;;;;;;;;;;;1.73;100.00;99717.63;5100013;28;19923;-76
2022/03/15 03:41:24;;;;;;;;;;;;;;;1.98;100.00;99719.16;5063489;28;19924;-76
2022/03/15 03:44:12;;;;;;;;;;;;;;;2.21;100.00;99706.41;5094674;28;19923;-76
2022/03/15 03:46:59;;;;;;;;;;;;;;;2.23;100.00;99717.09;5114602;28;19924;-76
2022/03/15 03:49:26;;;;;;;;;;;;;;;1.76;100.00;99714.97;5096250;28;20026;-76
2022/03/15 03:51:57;;;;;;;;;;;;;;;1.77;100.00;99724.06;5095665;28;19927;-76
2022/03/15 03:54:26;;;;;;;;;;;;;;;2.20;100.00;99720.53;5096693;28;20347;-76
2022/03/15 03:56:53;;;;;;;;;;;;;;;2.37;100.00;99720.22;5096365;28;20359;-76
2022/03/15 03:59:28;;;;;;;;;;;;;;;2.23;100.00;99711.56;5097096;28;20348;-76
2022/03/15 04:01:56;;;;;;;;;;;;;;;2.15;100.00;99720.81;5096594;28;19928;-76
2022/03/15 04:04:40;;;;;;;;;;;;;;;2.20;100.00;99712.25;5098446;28;20448;-76
2022/03/15 04:07:10;;;;;;;;;;;;;;;2.29;100.00;99710.16;5114138;28;19963;-76
2022/03/15 04:09:42;;;;;;;;;;;;;;;2.28;100.00;99714.88;5096574;28;19934;-76
2022/03/15 04:12:30;;;;;;;;;;;;;;;2.34;100.00;99718.16;5092185;28;19923;-76
2022/03/15 04:15:20;;;;;;;;;;;;;;;2.47;100.00;99711.44;5114227;28;20275;-76
2022/03/15 04:18:10;;;;;;;;;;;;;;;2.29;100.00;99712.91;5099471;28;19971;-76
2022/03/15 04:21:09;;;;;;;;;;;;;;;2.02;100.00;99710.97;5087922;28;20087;-76
2022/03/15 04:23:37;;;;;;;;;;;;;;;2.23;100.00;99708.81;5114209;28;20059;-76
2022/03/15 04:26:11;;;;;;;;;;;;;;;2.31;100.00;99703.13;5097328;28;19930;-76
2022/03/15 04:28:58;;;;;;;;;;;;;;;2.31;100.00;99703.13;5081949;28;19967;-76
2022/03/15 04:31:30;;;;;;;;;;;;;;;1.87;100.00;99696.00;5076403;28;19928;-76
2022/03/15 04:34:14;;;;;;;;;;;;;;;1.67;100.00;99700.56;5077983;28;19924;-76
2022/03/15 04:37:02;;;;;;;;;;;;;;;1.88;100.00;99699.56;5065472;28;20473;-76
2022/03/15 04:39:29;;;;;;;;;;;;;;;1.88;100.00;99701.16;5097144;28;20448;-76
2022/03/15 04:42:18;;;;;;;;;;;;;;;2.04;100.00;99683.84;5068890;28;20455;-76
2022/03/15 04:45:02;;;;;;;;;;;;;;;2.09;100.00;99695.41;5096491;28;20312;-76
2022/03/15 04:47:56;;;;;;;;;;;;;;;1.61;100.00;99698.38;5083508;28;19935;-76
2022/03/15 04:50:24;;;;;;;;;;;;;;;1.94;100.00;99687.13;5079377;28;19924;-76
2022/03/15 04:52:53;;;;;;;;;;;;;;;2.02;100.00;99694.44;5097575;28;19952;-76
2022/03/15 04:55:20;;;;;;;;;;;;;;;2.05;100.00;99682.69;5079517;28;19938;-76
2022/03/15 04:58:15;;;;;;;;;;;;;;;2.02;100.00;99678.69;5083257;28;19931;-76
2022/03/15 05:00:41;;;;;;;;;;;;;;;1.97;100.00;99684.47;5078883;28;19928;-76
2022/03/15 05:03:16;;;;;;;;;;;;;;;1.52;100.00;99682.00;5079998;28;19924;-76
2022/03/15 05:05:48;;;;;;;;;;;;;;;1.73;100.00;99688.13;5063164;28;19925;-76
2022/03/15 05:08:40;;;;;;;;;;;;;;;1.75;100.00;99690.53;5079023;28;19924;-76
2022/03/15 05:11:27;;;;;;;;;;;;;;;1.37;100.00;99679.19;5082176;28;19928;-76
2022/03/15 05:14:15;;;;;;;;;;;;;;;1.34;100.00;99682.63;5095466;28;19924;-76
2022/03/15 05:16:59;;;;;;;;;;;;;;;1.48;100.00;99681.13;5074884;28;19997;-76
2022/03/15 05:19:46;;;;;;;;;;;;;;;1.44;100.00;99679.38;5065293;28;20448;-76
2022/03/15 05:22:24;;;;;;;;;;;;;;;1.68;100.00;99663.56;5095979;28;19924;-76
2022/03/15 05:24:52;;;;;;;;;;;;;;;1.74;100.00;99667.69;5079341;28;19924;-76
2022/03/15 05:27:40;;;;;;;;;;;;;;;1.62;100.00;99661.44;5096841;28;20363;-76
2022/03/15 05:30:28;;;;;;;;;;;;;;;1.46;100.00;99649.53;5106066;28;20452;-76
2022/03/15 05:33:46;;;;;;;;;;;;;;;1.69;100.00;99658.88;5099602;28;20306;-76
2022/03/15 05:36:17;;;;;;;;;;;;;;;1.79;100.00;99656.41;5104639;28;19947;-76
2022/03/15 05:39:05;;;;;;;;;;;;;;;1.83;100.00;99654.56;5034441;28;19925;-76
2022/03/15 05:41:52;;;;;;;;;;;;;;;1.71;100.00;99651.84;5006880;28;20015;-76
2022/03/15 05:44:24;;;;;;;;;;;;;;;1.51;100.00;99655.63;4978865;28;19932;-76
2022/03/15 05:46:51;;;;;;;;;;;;;;;1.56;100.00;99655.34;4994256;28;19926;-76
2022/03/15 05:49:21;;;;;;;;;;;;;;;1.11;100.00;99649.28;4978185;28;20012;-76
2022/03/15 05:51:50;;;;;;;;;;;;;;;1.53;100.00;99656.06;4982585;28;19933;-76
2022/03/15 05:54:47;;;;;;;;;;;;;;;1.59;100.00;99654.66;5013895;28;19934;-76
2022/03/15 05:57:34;;;;;;;;;;;;;;;1.48;100.00;99652.75;5000358;28;20365;-74
2022/03/15 06:00:07;;;;;;;;;;;;;;;1.42;100.00;99652.19;5013490;28;19929;-75
2022/03/15 06:03:04;;;;;;;;;;;;;;;1.63;100.00;99649.25;5000407;28;20043;-74
2022/03/15 06:05:32;;;;;;;;;;;;;;;1.61;100.00;99646.03;4997569;28;20001;-75
2022/03/15 06:08:00;;;;;;;;;;;;;;;1.31;100.00;99642.84;4981550;28;19931;-75
2022/03/15 06:10:28;;;;;;;;;;;;;;;1.56;100.00;99638.84;4997350;28;20377;-75
2022/03/15 06:12:57;;;;;;;;;;;;;;;1.72;100.00;99641.66;4996557;28;20370;-75
2022/03/15 06:15:34;;;;;;;;;;;;;;;1.79;100.00;99636.31;5011292;28;19932;-75
2022/03/15 06:18:06;;;;;;;;;;;;;;;1.22;100.00;99644.09;4997221;28;20317;-74
2022/03/15 06:20:35;;;;;;;;;;;;;;;1.30;100.00;99643.97;4981394;28;19932;-74
2022/03/15 06:23:03;;;;;;;;;;;;;;;1.25;100.00;99638.72;5042326;28;19929;-74
2022/03/15 06:25:30;;;;;;;;;;;;;;;1.51;100.00;99636.34;5056883;28;20467;-75
2022/03/15 06:28:17;;;;;;;;;;;;;;;1.61;100.00;99629.53;5043962;28;19924;-74
2022/03/15 06:31:06;;;;;;;;;;;;;;;1.64;100.00;99637.88;5043850;28;19925;-75
2022/03/15 06:33:36;;;;;;;;;;;;;;;1.70;100.00;99642.00;5057032;28;19982;-75
2022/03/15 06:36:11;;;;;;;;;;;;;;;1.68;100.00;99638.78;5056994;28;19936;-75
2022/03/15 06:38:43;;;;;;;;;;;;;;;1.63;100.00;99636.31;5071955;28;19925;-75
2022/03/15 06:41:30;;;;;;;;;;;;;;;1.73;100.00;99634.97;5068867;28;19930;-75
2022/03/15 06:44:17;;;;;;;;;;;;;;;1.47;100.00;99646.44;5110387;28;19928;-75
2022/03/15 06:47:09;;;;;;;;;;;;;;;1.71;100.00;99646.34;5086604;28;19924;-75
2022/03/15 06:49:43;;;;;;;;;;;;;;;1.77;100.00;99633.91;5079746;28;20365;-75
2022/03/15 06:52:15;;;;;;;;;;;;;;;1.85;100.00;99640.41;5114210;28;19930;-76
2022/03/15 06:54:43;;;;;;;;;;;;;;;1.82;100.00;99627.34;5097627;28;19957;-75
2022/03/15 06:57:32;;;;;;;;;;;;;;;1.83;100.00;99621.50;5074526;28;19924;-76
2022/03/15 07:00:07;;;;;;;;;;;;;;;1.89;100.00;99622.84;5091680;28;19985;-76
2022/03/15 07:02:36;;;;;;;;;;;;;;;2.07;100.00;99619.75;5055959;28;19924;-76
2022/03/15 07:05:06;;;;;;;;;;;;;;;2.15;100.00;99627.06;5091412;28;19959;-75
2022/03/15 07:07:53;;;;;;;;;;;;;;;2.08;100.00;99621.34;5090384;28;20380;-75
2022/03/15 07:10:29;;;;;;;;;;;;;;;2.25;100.00;99626.53;5091010;28;19939;-76
2022/03/15 07:13:16;;;;;;;;;;;;;;;2.20;100.00;99608.28;5076267;28;19932;-76
2022/03/15 07:15:44;;;;;;;;;;;;;;;2.25;100.00;99609.97;5082901;28;19959;-75
2022/03/15 07:18:31;;;;;;;;;;;;;;;3.45;100.00;99609.63;5111757;28;19923;-77
2022/03/15 07:21:00;;;;;;;;;;;;;;;4.04;100.00;99602.91;5093412;28;19923;-75
2022/03/15 07:23:39;;;;;;;;;;;;;;;5.38;100.00;99593.56;5111085;28;20524;-75
2022/03/15 07:26:27;;;;;;;;;;;;;;;6.52;100.00;99588.06;5054801;28;19924;-75
2022/03/15 07:28:55;;;;;;;;;;;;;;;7.09;100.00;99579.75;5067651;28;19929;-76
2022/03/15 07:31:30;;;;;;;;;;;;;;;7.93;100.00;99579.34;5028969;28;19931;-75
2022/03/15 07:34:18;;;;;;;;;;;;;;;7.45;100.00;99575.19;5063800;28;19936;-75
2022/03/15 07:37:06;;;;;;;;;;;;;;;8.04;100.00;99587.72;5067345;28;19924;-75
2022/03/15 07:39:55;;;;;;;;;;;;;;;7.96;100.00;99589.69;5076975;28;20004;-75
2022/03/15 07:42:28;;;;;;;;;;;;;;;8.19;100.00;99592.91;5090539;28;19928;-76
2022/03/15 07:45:18;;;;;;;;;;;;;;;8.50;100.00;99592.19;5095478;28;19928;-76
2022/03/15 07:47:48;;;;;;;;;;;;;;;8.61;100.00;99593.00;5094226;28;19924;-75
2022/03/15 07:50:15;;;;;;;;;;;;;;;8.52;100.00;99595.38;5074415;28;20032;-76
2022/03/15 07:52:47;;;;;;;;;;;;;;;8.98;100.00;99587.78;5068033;28;19924;-75
2022/03/15 07:55:17;;;;;;;;;;;;;;;9.48;100.00;99579.31;5050775;28;20524;-75
2022/03/15 07:58:06;;;;;;;;;;;;;;;9.70;100.00;99575.22;5090971;28;19924;-76
2022/03/15 08:00:33;;;;;;;;;;;;;;;9.92;100.00;99569.13;5094348;28;19930;-75
2022/03/15 08:03:00;;;;;;;;;;;;;;;10.27;100.00;99573.75;5083344;28;20356;-76
2022/03/15 08:05:45;;;;;;;;;;;;;;;10.56;100.00;99573.13;5111063;28;20443;-76
2022/03/15 08:08:32;;;;;;;;;;;;;;;10.54;100.00;99564.34;5095031;28;19934;-75
2022/03/15 08:11:16;;;;;;;;;;;;;;;10.68;100.00;99563.44;5092328;28;19955;-75
2022/03/15 08:13:46;;;;;;;;;;;;;;;9.57;100.00;99568.50;5075622;28;20272;-75
2022/03/15 08:16:21;;;;;;;;;;;;;;;9.61;100.00;99577.66;5091295;28;20011;-75
2022/03/15 08:19:09;;;;;;;;;;;;;;;9.47;100.00;99564.56;5031463;28;19933;-75
2022/03/15 08:22:06;;;;;;;;;;;;;;;9.46;100.00;99556.59;5018646;28;19925;-77
2022/03/15 08:25:02;;;;;;;;;;;;;;;9.31;100.00;99557.84;5030177;28;20445;-75
2022/03/15 08:27:36;;;;;;;;;;;;;;;10.03;100.00;99555.09;5031300;28;19925;-75
2022/03/15 08:30:04;;;;;;;;;;;;;;;10.10;100.00;99549.53;5014973;28;19932;-75
2022/03/15 08:32:54;;;;;;;;;;;;;;;9.87;100.00;99549.22;5018102;28;19932;-75
2022/03/15 08:35:21;;;;;;;;;;;;;;;9.33;100.00;99553.44;5044191;28;19947;-75
2022/03/15 08:37:53;;;;;;;;;;;;;;;8.88;100.00;99555.16;5050906;28;19929;-75
2022/03/15 08:40:21;;;;;;;;;;;;;;;9.08;100.00;99561.88;5051109;28;19948;-75
2022/03/15 08:43:14;;;;;;;;;;;;;;;9.19;100.00;99568.22;5048959;28;19925;-75
2022/03/15 08:45:41;;;;;;;;;;;;;;;9.21;100.00;99564.25;5051140;28;19967;-76
2022/03/15 08:48:28;;;;;;;;;;;;;;;9.18;100.00;99567.84;5028533;28;19983;-75
2022/03/15 08:50:55;;;;;;;;;;;;;;;9.47;100.00;99567.34;4998667;28;19975;-75
2022/03/15 08:53:27;;;;;;;;;;;;;;;9.40;100.00;99563.78;5048922;28;19940;-75
2022/03/15 08:55:55;;;;;;;;;;;;;;;9.63;100.00;99564.09;5026916;28;19955;-75
2022/03/15 08:58:45;;;;;;;;;;;;;;;9.93;100.00;99569.94;5034611;28;19940;-76
2022/03/15 09:01:13;;;;;;;;;;;;;;;9.85;100.00;99557.19;5031261;28;19925;-76
2022/03/15 09:04:02;;;;;;;;;;;;;;;8.76;100.00;99561.13;5045922;28;19932;-75
2022/03/15 09:06:35;;;;;;;;;;;;;;;8.98;100.00;99559.91;5016089;28;20071;-75
2022/03/15 09:09:25;;;;;;;;;;;;;;;9.26;100.00;99549.88;5068424;28;19924;-75
2022/03/15 09:11:56;;;;;;;;;;;;;;;8.64;100.00;99560.75;5103677;28;19928;-75
2022/03/15 09:14:24;;;;;;;;;;;;;;;8.43;100.00;99564.34;5095510;28;19928;-75
2022/03/15 09:17:12;;;;;;;;;;;;;;;8.58;100.00;99559.56;5096165;28;20452;-75
2022/03/15 09:19:42;;;;;;;;;;;;;;;8.51;100.00;99554.75;5093389;28;20363;-76
2022/03/15 09:22:14;;;;;;;;;;;;;;;8.80;100.00;99553.56;5068922;28;19927;-76
2022/03/15 09:25:01;;;;;;;;;;;;;;;9.18;100.00;99548.31;5115551;28;19931;-75
2022/03/15 09:27:39;;;;;;;;;;;;;;;9.06;100.00;99539.19;5117596;28;19955;-76
2022/03/15 09:30:07;;;;;;;;;;;;;;;9.27;100.00;99534.75;5117258;28;19946;-75
2022/03/15 09:32:45;;;;;;;;;;;;;;;9.43;100.00;99544.25;5117246;28;19969;-76
2022/03/15 09:35:16;;;;;;;;;;;;;;;9.75;100.00;99544.09;5115939;28;19924;-76
2022/03/15 09:37:46;;;;;;;;;;;;;;;10.05;100.00;99539.53;5098408;28;19930;-75
2022/03/15 09:40:13;;;;;;;;;;;;;;;10.45;100.00;99540.91;5064293;28;19924;-76
2022/03/15 09:42:58;;;;;;;;;;;;;;;10.17;100.00;99536.31;5080162;28;19924;-75
2022/03/15 09:45:28;;;;;;;;;;;;;;;9.67;100.00;99537.78;5113844;28;19926;-76
2022/03/15 09:48:15;;;;;;;;;;;;;;;10.00;100.00;99528.00;5116904;28;20267;-75
2022/03/15 09:50:45;;;;;;;;;;;;;;;9.71;100.00;99532.19;5116881;28;20010;-75
2022/03/15 09:53:12;;;;;;;;;;;;;;;9.67;100.00;99528.59;5101374;28;19931;-76
2022/03/15 09:55:40;;;;;;;;;;;;;;;9.54;100.00;99522.69;5096255;28;19932;-75
2022/03/15 09:58:08;;;;;;;;;;;;;;;9.26;100.00;99516.41;5096458;28;19928;-75
2022/03/15 10:00:38;;;;;;;;;;;;;;;9.42;100.00;99525.13;5104779;28;19931;-75
2022/03/15 10:03:06;;;;;;;;;;;;;;;9.23;100.00;99517.22;5098164;28;19931;-75
2022/03/15 10:05:34;;;;;;;;;;;;;;;9.19;100.00;99518.03;5115340;28;19924;-76
2022/03/15 10:08:04;;;;;;;;;;;;;;;9.79;100.00;99512.19;5098021;28;19946;-75
2022/03/15 10:10:52;;;;;;;;;;;;;;;9.97;100.00;99509.28;5114193;28;19928;-75
2022/03/15 10:13:27;;;;;;;;;;;;;;;10.74;100.00;99512.28;5113263;28;19968;-75
2022/03/15 10:16:16;;;;;;;;;;;;;;;11.01;100.00;99509.63;5095702;28;19925;-75
2022/03/15 10:18:51;;;;;;;;;;;;;;;11.14;100.00;99501.47;5078897;28;19924;-76
2022/03/15 10:21:20;;;;;;;;;;;;;;;11.69;100.00;99497.19;5109422;28;19968;-75
2022/03/15 10:23:47;;;;;;;;;;;;;;;11.79;100.00;99496.28;5116001;28;20297;-75
2022/03/15 10:26:26;;;;;;;;;;;;;;;12.08;100.00;99486.25;5090577;28;19932;-75
2022/03/15 10:29:14;;;;;;;;;;;;;;;12.53;100.00;99481.09;5100950;28;19927;-76
2022/03/15 10:31:46;;;;;;;;;;;;;;;12.03;100.00;99475.53;5101313;28;19959;-76
2022/03/15 10:34:19;;;;;;;;;;;;;;;12.13;100.00;99468.94;5101265;28;19924;-75
2022/03/15 10:37:09;;;;;;;;;;;;;;;11.78;100.00;99474.31;5109616;28;20311;-75
2022/03/15 10:40:05;;;;;;;;;;;;;;;11.33;100.00;99465.28;5047274;28;20012;-76
2022/03/15 10:42:50;;;;;;;;;;;;;;;11.24;100.00;99478.97;5095666;28;20066;-76
2022/03/15 10:45:22;;;;;;;;;;;;;;;12.09;100.00;99479.44;5094410;28;19924;-75
2022/03/15 10:48:18;;;;;;;;;;;;;;;12.09;100.00;99471.03;5079533;28;19928;-75
2022/03/15 10:51:07;;;;;;;;;;;;;;;11.88;100.00;99474.16;5079072;28;19931;-75
2022/03/15 10:54:02;;;;;;;;;;;;;;;11.62;100.00;99479.69;5095312;28;19953;-75
2022/03/15 10:56:59;;;;;;;;;;;;;;;11.24;100.00;99481.78;5063886;28;19939;-75
2022/03/15 10:59:52;;;;;;;;;;;;;;;11.64;100.00;99472.50;5094937;28;20305;-75
2022/03/15 11:02:30;;;;;;;;;;;;;;;12.62;100.00;99465.31;5091974;28;20330;-75
2022/03/15 11:04:57;;;;;;;;;;;;;;;11.92;100.00;99471.31;5078440;28;20360;-75
2022/03/15 11:07:38;;;;;;;;;;;;;;;12.38;100.00;99460.16;5094193;28;19928;-75
2022/03/15 11:11:06;;;;;;;;;;;;;;;13.22;100.00;99449.38;5089485;28;19946;-78
2022/03/15 11:14:04;;;;;;;;;;;;;;;13.26;100.00;99444.47;5074271;28;20400;-78
2022/03/15 11:16:53;;;;;;;;;;;;;;;13.70;100.00;99441.13;5049703;28;20375;-78
2022/03/15 11:19:44;;;;;;;;;;;;;;;13.68;100.00;99438.75;5083599;28;20003;-78
2022/03/15 11:22:36;;;;;;;;;;;;;;;13.61;100.00;99433.31;5096851;28;20006;-78
2022/03/15 11:25:24;;;;;;;;;;;;;;;13.60;100.00;99436.53;5028377;28;19925;-78
2022/03/15 11:28:12;;;;;;;;;;;;;;;14.13;100.00;99438.91;5028662;28;19952;-78
2022/03/15 11:31:00;;;;;;;;;;;;;;;14.30;100.00;99434.88;5028699;28;19972;-78
2022/03/15 11:33:31;;;;;;;;;;;;;;;14.08;100.00;99428.19;5028049;28;19935;-78
2022/03/15 11:36:25;;;;;;;;;;;;;;;14.56;100.00;99425.38;5027470;28;19936;-75
2022/03/15 11:39:31;;;;;;;;;;;;;;;13.84;100.00;99421.16;5007641;28;20381;-75
2022/03/15 11:41:59;;;;;;;;;;;;;;;13.24;100.00;99425.28;4991464;28;19930;-75
2022/03/15 11:44:57;;;;;;;;;;;;;;;13.63;100.00;99430.81;4993042;28;20421;-74
2022/03/15 11:47:39;;;;;;;;;;;;;;;13.08;100.00;99424.41;5004949;28;20389;-74
2022/03/15 11:50:49;;;;;;;;;;;;;;;13.87;100.00;99418.22;4990313;28;20445;-74
2022/03/15 11:53:55;;;;;;;;;;;;;;;13.83;100.00;99409.09;5007434;28;20348;-75
2022/03/15 11:56:30;;;;;;;;;;;;;;;14.14;100.00;99403.94;5006198;28;20428;-75
2022/03/15 11:59:25;;;;;;;;;;;;;;;14.26;100.00;99392.03;5021353;28;20440;-74
2022/03/15 12:02:12;;;;;;;;;;;;;;;13.48;100.00;99390.25;5046944;28;19929;-75
2022/03/15 12:05:17;;;;;;;;;;;;;;;14.36;100.00;99382.53;5023156;28;20495;-75
2022/03/15 12:08:20;;;;;;;;;;;;;;;14.01;100.00;99389.03;5039410;28;19925;-75
2022/03/15 12:11:09;;;;;;;;;;;;;;;13.44;100.00;99388.75;5058995;28;20302;-74
2022/03/15 12:14:01;;;;;;;;;;;;;;;13.92;100.00;99374.78;5067954;28;20398;-74
2022/03/15 12:16:42;;;;;;;;;;;;;;;13.89;100.00;99368.03;5068962;28;19924;-74
2022/03/15 12:19:47;;;;;;;;;;;;;;;14.87;100.00;99364.66;5069127;28;19925;-75
2022/03/15 12:22:37;;;;;;;;;;;;;;;14.60;100.00;99355.75;5064571;28;20048;-74
2022/03/15 12:25:35;;;;;;;;;;;;;;;14.78;100.00;99364.53;5051926;28;19925;-76
2022/03/15 12:28:05;;;;;;;;;;;;;;;15.05;100.00;99350.06;5060587;28;19931;-75
2022/03/15 12:31:06;;;;;;;;;;;;;;;15.19;100.00;99336.34;5071128;28;19931;-75
2022/03/15 12:33:59;;;;;;;;;;;;;;;15.35;100.00;99349.56;5076443;28;19924;-75
2022/03/15 12:36:59;;;;;;;;;;;;;;;15.22;100.00;99332.66;5077608;28;20374;-74
2022/03/15 12:39:52;;;;;;;;;;;;;;;15.38;100.00;99326.97;5036189;28;20025;-74
2022/03/15 12:42:21;;;;;;;;;;;;;;;15.78;100.00;99328.06;5038610;28;19925;-74
2022/03/15 12:44:59;;;;;;;;;;;;;;;15.85;100.00;99312.97;5051837;28;19929;-74
2022/03/15 12:47:33;;;;;;;;;;;;;;;15.99;100.00;99307.63;5044775;28;20380;-78
2022/03/15 12:50:13;;;;;;;;;;;;;;;15.17;100.00;99313.53;5054436;28;19925;-77
2022/03/15 12:52:49;;;;;;;;;;;;;;;15.08;100.00;99309.78;5054419;28;20411;-77
2022/03/15 12:55:34;;;;;;;;;;;;;;;15.19;100.00;99308.22;5055812;28;19986;-77
2022/03/15 12:58:05;;;;;;;;;;;;;;;15.26;100.00;99316.44;5054253;28;19932;-77
2022/03/15 13:00:35;;;;;;;;;;;;;;;15.16;100.00;99300.66;5055329;28;19933;-77
2022/03/15 13:03:04;;;;;;;;;;;;;;;14.78;100.00;99297.00;5055493;28;19929;-77
2022/03/15 13:05:41;;;;;;;;;;;;;;;14.68;100.00;99297.31;5054324;28;20011;-77
2022/03/15 13:08:09;;;;;;;;;;;;;;;15.29;100.00;99301.47;5053544;28;20320;-78
2022/03/15 13:10:53;;;;;;;;;;;;;;;15.17;100.00;99293.81;5053963;28;19925;-79
2022/03/15 13:13:29;;;;;;;;;;;;;;;14.79;100.00;99292.16;5052590;28;19925;-79
2022/03/15 13:16:09;;;;;;;;;;;;;;;15.16;100.00;99272.50;5054919;28;20023;-76
2022/03/15 13:18:38;;;;;;;;;;;;;;;15.45;100.00;99278.09;5055902;28;20435;-75
2022/03/15 13:21:07;;;;;;;;;;;;;;;15.00;100.00;99283.09;5056477;28;19925;-74
2022/03/15 13:23:46;;;;;;;;;;;;;;;15.35;100.00;99284.81;5049195;28;19971;-75
2022/03/15 13:26:19;;;;;;;;;;;;;;;15.48;100.00;99289.22;5050705;28;19925;-75
2022/03/15 13:28:48;;;;;;;;;;;;;;;15.39;100.00;99271.41;5054705;28;20012;-74
2022/03/15 13:31:16;;;;;;;;;;;;;;;15.46;100.00;99274.81;5051352;28;19968;-75
2022/03/15 13:33:51;;;;;;;;;;;;;;;15.30;100.00;99268.47;5048197;28;19924;-75
2022/03/15 13:36:19;;;;;;;;;;;;;;;15.72;100.00;99265.09;5075730;28;20002;-74
2022/03/15 13:38:48;;;;;;;;;;;;;;;15.94;100.00;99265.97;5054746;28;19925;-75